createdAt,value
2022-10-14T00:00:01.348Z,37.20
2022-10-14T00:02:27.737Z,40.53
2022-10-14T00:04:54.291Z,38.00
2022-10-14T00:07:20.890Z,36.40
2022-10-14T00:09:47.492Z,40.13
2022-10-14T00:12:14.087Z,43.83
2022-10-14T00:14:40.571Z,42.00
2022-10-14T00:17:06.963Z,34.70
2022-10-14T00:19:33.512Z,41.92
2022-10-14T00:22:00.061Z,38.78
2022-10-14T00:24:26.603Z,43.35
2022-10-14T00:26:52.996Z,39.53
2022-10-14T00:29:19.610Z,35.92
2022-10-14T00:31:47.060Z,44.88
2022-10-14T00:34:15.755Z,39.28
2022-10-14T00:36:43.136Z,31.85
2022-10-14T00:39:10.363Z,35.83
2022-10-14T00:41:37.294Z,34.47
2022-10-14T00:44:12.825Z,34.97
2022-10-14T00:46:44.784Z,40.65
2022-10-14T00:49:17.195Z,38.22
2022-10-14T00:51:49.327Z,32.90
2022-10-14T00:54:19.740Z,34.40
2022-10-14T00:56:48.123Z,33.65
2022-10-14T00:59:15.453Z,34.05
2022-10-14T01:01:41.942Z,34.83
2022-10-14T01:04:08.361Z,34.08
2022-10-14T01:07:15.533Z,39.05
2022-10-14T01:10:11.460Z,34.67
2022-10-14T01:12:53.146Z,37.42
2022-10-14T01:15:31.239Z,34.20
2022-10-14T01:18:21.312Z,45.97
2022-10-14T01:21:18.122Z,43.53
2022-10-14T01:23:56.437Z,34.72
2022-10-14T01:26:43.564Z,36.88
2022-10-14T01:29:25.659Z,38.20
2022-10-14T01:32:02.048Z,34.13
2022-10-14T01:34:38.387Z,37.72
2022-10-14T01:37:13.638Z,37.15
2022-10-14T01:39:47.987Z,36.42
2022-10-14T01:42:20.099Z,31.55
2022-10-14T01:44:54.211Z,33.53
2022-10-14T01:47:21.932Z,38.78
2022-10-14T01:49:57.012Z,31.55
2022-10-14T01:52:29.972Z,34.20
2022-10-14T01:55:02.410Z,35.10
2022-10-14T01:57:31.591Z,39.22
2022-10-14T01:59:59.378Z,33.33
2022-10-14T02:02:26.222Z,36.35
2022-10-14T02:04:52.780Z,38.10
2022-10-14T02:07:43.306Z,36.72
2022-10-14T02:10:27.790Z,33.75
2022-10-14T02:13:19.584Z,36.25
2022-10-14T02:16:06.289Z,35.08
2022-10-14T02:18:46.931Z,42.92
2022-10-14T02:21:24.501Z,33.70
2022-10-14T02:24:00.280Z,38.30
2022-10-14T02:26:28.319Z,37.42
2022-10-14T02:28:56.666Z,37.10
2022-10-14T02:31:26.421Z,35.55
2022-10-14T02:33:55.919Z,44.85
2022-10-14T02:36:26.305Z,35.22
2022-10-14T02:38:56.706Z,35.65
2022-10-14T02:41:25.984Z,37.10
2022-10-14T02:43:52.619Z,34.22
2022-10-14T02:46:22.718Z,40.40
2022-10-14T02:48:50.202Z,36.50
2022-10-14T02:51:17.126Z,31.08
2022-10-14T02:53:43.619Z,38.50
2022-10-14T02:56:13.027Z,37.15
2022-10-14T02:58:39.546Z,41.78
2022-10-14T03:01:06.024Z,34.05
2022-10-14T03:03:32.502Z,36.28
2022-10-14T03:05:58.910Z,38.78
2022-10-14T03:08:25.340Z,35.15
2022-10-14T03:10:51.759Z,33.20
2022-10-14T03:13:18.141Z,39.25
2022-10-14T03:15:44.664Z,32.38
2022-10-14T03:18:11.122Z,31.52
2022-10-14T03:20:37.785Z,31.88
2022-10-14T03:23:04.248Z,35.08
2022-10-14T03:25:30.665Z,32.67
2022-10-14T03:27:57.107Z,29.58
2022-10-14T03:30:23.511Z,44.90
2022-10-14T03:32:49.910Z,37.33
2022-10-14T03:35:16.436Z,44.05
2022-10-14T03:37:42.844Z,37.58
2022-10-14T03:40:10.146Z,32.45
2022-10-14T03:42:36.911Z,37.45
2022-10-14T03:45:04.216Z,40.92
2022-10-14T03:47:30.711Z,33.05
2022-10-14T03:49:57.108Z,38.90
2022-10-14T03:52:23.830Z,39.85
2022-10-14T03:54:50.534Z,35.78
2022-10-14T03:57:16.964Z,38.72
2022-10-14T03:59:44.542Z,32.60
2022-10-14T04:02:11.086Z,35.95
2022-10-14T04:04:37.521Z,39.70
2022-10-14T04:07:04.196Z,34.63
2022-10-14T04:09:30.641Z,34.97
2022-10-14T04:11:58.039Z,40.78
2022-10-14T04:14:26.503Z,42.67
2022-10-14T04:16:52.998Z,35.00
2022-10-14T04:19:19.623Z,34.45
2022-10-14T04:21:46.071Z,34.80
2022-10-14T04:24:12.831Z,37.55
2022-10-14T04:26:39.382Z,38.03
2022-10-14T04:29:05.792Z,42.00
2022-10-14T04:31:32.203Z,34.97
2022-10-14T04:33:58.657Z,39.45
2022-10-14T04:36:25.169Z,33.38
2022-10-14T04:38:51.573Z,38.92
2022-10-14T04:41:17.995Z,32.10
2022-10-14T04:43:44.397Z,41.85
2022-10-14T04:46:10.976Z,43.78
2022-10-14T04:48:37.371Z,36.15
2022-10-14T04:51:04.019Z,39.15
2022-10-14T04:53:30.462Z,40.90
2022-10-14T04:55:56.886Z,34.22
2022-10-14T04:58:23.339Z,40.78
2022-10-14T05:00:49.794Z,44.60
2022-10-14T05:03:16.178Z,35.67
2022-10-14T05:05:42.642Z,41.47
2022-10-14T05:08:09.054Z,39.97
2022-10-14T05:10:35.450Z,39.45
2022-10-14T05:13:02.501Z,49.50
2022-10-14T05:15:29.195Z,34.80
2022-10-14T05:17:55.869Z,36.85
2022-10-14T05:20:22.549Z,40.00
2022-10-14T05:22:48.985Z,36.20
2022-10-14T05:25:15.576Z,43.95
2022-10-14T05:27:42.047Z,45.42
2022-10-14T05:30:09.628Z,34.25
2022-10-14T05:32:36.444Z,36.22
2022-10-14T05:35:02.967Z,39.20
2022-10-14T05:37:29.355Z,40.15
2022-10-14T05:39:55.863Z,32.10
2022-10-14T05:42:22.700Z,36.67
2022-10-14T05:44:49.361Z,44.92
2022-10-14T05:47:15.821Z,40.65
2022-10-14T05:49:42.794Z,35.17
2022-10-14T05:52:09.302Z,42.80
2022-10-14T05:54:35.917Z,43.20
2022-10-14T05:57:02.404Z,48.08
2022-10-14T05:59:29.825Z,37.00
2022-10-14T06:01:56.923Z,36.78
2022-10-14T06:04:23.440Z,34.90
2022-10-14T06:06:49.917Z,33.85
2022-10-14T06:09:16.860Z,38.92
2022-10-14T06:11:43.506Z,42.38
2022-10-14T06:14:10.003Z,43.70
2022-10-14T06:16:36.537Z,43.10
2022-10-14T06:19:03.612Z,46.00
2022-10-14T06:21:30.177Z,43.70
2022-10-14T06:23:56.615Z,36.25
2022-10-14T06:26:23.159Z,37.15
2022-10-14T06:28:49.658Z,34.97
2022-10-14T06:31:16.127Z,46.25
2022-10-14T06:33:44.043Z,48.58
2022-10-14T06:36:11.818Z,42.60
2022-10-14T06:38:38.261Z,39.22
2022-10-14T06:41:04.948Z,35.75
2022-10-14T06:43:31.338Z,31.13
2022-10-14T06:45:58.623Z,35.85
2022-10-14T06:48:25.130Z,38.08
2022-10-14T06:50:52.567Z,39.40
2022-10-14T06:53:18.983Z,45.55
2022-10-14T06:55:45.439Z,48.75
2022-10-14T06:58:11.905Z,38.67
2022-10-14T07:00:38.415Z,33.83
2022-10-14T07:03:04.887Z,33.47
2022-10-14T07:05:31.401Z,34.72
2022-10-14T07:07:58.500Z,47.30
2022-10-14T07:10:25.008Z,40.15
2022-10-14T07:12:55.534Z,30.52
2022-10-14T07:15:22.171Z,32.42
2022-10-14T07:17:48.703Z,45.40
2022-10-14T07:20:15.234Z,43.17
2022-10-14T07:22:41.685Z,43.75
2022-10-14T07:25:08.748Z,36.45
2022-10-14T07:27:35.207Z,41.60
2022-10-14T07:30:01.714Z,40.75
2022-10-14T07:32:28.215Z,36.13
2022-10-14T07:34:54.784Z,41.75
2022-10-14T07:37:21.535Z,31.35
2022-10-14T07:39:48.426Z,30.98
2022-10-14T07:42:15.032Z,40.22
2022-10-14T07:44:41.588Z,31.45
2022-10-14T07:47:08.065Z,49.38
2022-10-14T07:49:34.724Z,33.38
2022-10-14T07:52:01.191Z,41.67
2022-10-14T07:54:30.048Z,44.22
2022-10-14T07:56:57.950Z,34.92
2022-10-14T07:59:25.616Z,36.30
2022-10-14T08:01:53.177Z,46.95
2022-10-14T08:04:20.164Z,36.95
2022-10-14T08:06:50.175Z,33.83
2022-10-14T08:09:18.325Z,36.55
2022-10-14T08:11:45.826Z,32.85
2022-10-14T08:14:12.344Z,34.88
2022-10-14T08:16:39.338Z,39.10
2022-10-14T08:19:14.126Z,40.45
2022-10-14T08:21:41.730Z,33.67
2022-10-14T08:24:08.686Z,32.47
2022-10-14T08:26:39.844Z,37.28
2022-10-14T08:29:11.075Z,27.50
2022-10-14T08:31:38.093Z,37.72
2022-10-14T08:34:04.572Z,37.45
2022-10-14T08:36:31.442Z,33.47
2022-10-14T08:38:58.041Z,36.60
2022-10-14T08:41:30.592Z,26.45
2022-10-14T08:44:20.610Z,32.20
2022-10-14T08:46:52.373Z,31.30
2022-10-14T08:49:25.997Z,30.55
2022-10-14T08:52:00.044Z,28.60
2022-10-14T08:54:38.218Z,29.75
2022-10-14T08:57:06.154Z,39.13
2022-10-14T08:59:40.312Z,39.95
2022-10-14T09:02:57.208Z,39.08
2022-10-14T09:05:25.858Z,33.60
2022-10-14T09:07:55.280Z,29.10
2022-10-14T09:10:25.520Z,35.53
2022-10-14T09:12:56.126Z,35.60
2022-10-14T09:15:30.725Z,30.10
2022-10-14T09:18:20.724Z,33.28
2022-10-14T09:20:48.300Z,33.20
2022-10-14T09:23:19.134Z,31.35
2022-10-14T09:25:57.480Z,24.58
2022-10-14T09:28:34.678Z,34.58
2022-10-14T09:31:01.278Z,32.33
2022-10-14T09:33:28.839Z,30.92
2022-10-14T09:35:55.450Z,35.08
2022-10-14T09:38:21.981Z,35.38
2022-10-14T09:40:51.372Z,33.30
2022-10-14T09:43:20.620Z,26.30
2022-10-14T09:45:50.292Z,29.50
2022-10-14T09:48:49.076Z,39.20
2022-10-14T09:51:34.781Z,27.73
2022-10-14T09:54:04.020Z,34.30
2022-10-14T09:56:40.683Z,30.33
2022-10-14T09:59:19.531Z,34.88
2022-10-14T10:01:54.635Z,31.98
2022-10-14T10:04:36.501Z,24.70
2022-10-14T10:07:06.905Z,22.90
2022-10-14T10:09:34.423Z,26.13
2022-10-14T10:12:00.937Z,30.38
2022-10-14T10:14:33.172Z,28.08
2022-10-14T10:17:09.621Z,28.35
2022-10-14T10:19:38.827Z,29.50
2022-10-14T10:22:27.344Z,29.48
2022-10-14T10:25:03.528Z,32.50
2022-10-14T10:27:35.298Z,34.38
2022-10-14T10:30:37.324Z,28.98
2022-10-14T10:36:10.097Z,28.58
2022-10-14T10:38:54.177Z,26.35
2022-10-14T10:41:39.088Z,26.65
2022-10-14T10:44:15.848Z,24.88
2022-10-14T10:47:20.659Z,35.58
2022-10-14T10:50:10.004Z,25.60
2022-10-14T10:52:56.560Z,21.90
2022-10-14T10:55:59.531Z,23.88
2022-10-14T10:58:41.119Z,28.08
2022-10-14T11:01:32.207Z,26.88
2022-10-14T11:04:17.655Z,28.83
2022-10-14T11:07:28.935Z,28.13
2022-10-14T11:10:32.986Z,29.83
2022-10-14T11:13:06.516Z,30.20
2022-10-14T11:15:57.275Z,24.98
2022-10-14T11:18:49.979Z,24.30
2022-10-14T11:21:25.344Z,26.38
2022-10-14T11:24:00.047Z,29.70
2022-10-14T11:26:41.539Z,27.65
2022-10-14T11:29:23.023Z,23.17
2022-10-14T11:32:34.685Z,23.42
2022-10-14T11:35:12.747Z,23.80
2022-10-14T11:38:18.712Z,24.52
2022-10-14T11:41:01.454Z,23.85
2022-10-14T11:43:50.383Z,25.70
2022-10-14T11:46:20.573Z,26.45
2022-10-14T11:48:59.354Z,25.40
2022-10-14T11:51:35.788Z,24.65
2022-10-14T11:54:11.432Z,18.27
2022-10-14T11:56:51.184Z,18.80
2022-10-14T11:59:29.591Z,16.83
2022-10-14T12:02:12.715Z,17.40
2022-10-14T12:04:43.831Z,21.25
2022-10-14T12:07:22.820Z,21.23
2022-10-14T12:09:57.391Z,22.23
2022-10-14T12:12:29.091Z,17.70
2022-10-14T12:15:04.213Z,23.20
2022-10-14T12:17:39.109Z,20.67
2022-10-14T12:20:22.845Z,19.50
2022-10-14T12:22:51.048Z,18.65
2022-10-14T12:25:22.261Z,17.08
2022-10-14T12:27:50.154Z,22.10
2022-10-14T12:30:36.745Z,16.95
2022-10-14T12:33:08.946Z,18.40
2022-10-14T12:35:51.759Z,18.52
2022-10-14T12:38:20.735Z,16.10
2022-10-14T12:40:50.654Z,16.88
2022-10-14T12:43:26.196Z,19.13
2022-10-14T12:46:24.691Z,14.38
2022-10-14T12:48:52.019Z,16.88
2022-10-14T12:51:23.071Z,16.60
2022-10-14T12:54:15.731Z,21.52
2022-10-14T12:56:54.929Z,22.10
2022-10-14T12:59:29.817Z,15.68
2022-10-14T13:01:59.944Z,12.98
2022-10-14T13:04:28.579Z,14.70
2022-10-14T13:07:35.678Z,15.85
2022-10-14T13:10:45.216Z,12.95
2022-10-14T13:13:41.917Z,14.32
2022-10-14T13:16:23.263Z,16.20
2022-10-14T13:18:54.298Z,12.40
2022-10-14T13:21:38.945Z,15.65
2022-10-14T13:24:14.060Z,13.57
2022-10-14T13:26:56.692Z,13.40
2022-10-14T13:29:36.828Z,13.85
2022-10-14T13:32:27.314Z,20.13
2022-10-14T13:34:56.461Z,16.70
2022-10-14T13:38:03.760Z,14.02
2022-10-14T13:40:37.408Z,34.50
2022-10-14T13:43:15.979Z,16.40
2022-10-14T13:45:53.133Z,18.25
2022-10-14T13:48:27.391Z,21.13
2022-10-14T13:51:24.754Z,17.48
2022-10-14T13:54:09.317Z,17.17
2022-10-14T13:56:35.809Z,16.33
2022-10-14T13:59:05.408Z,12.38
2022-10-14T14:01:39.405Z,13.75
2022-10-14T14:04:06.127Z,16.80
2022-10-14T14:06:40.071Z,13.88
2022-10-14T14:09:24.404Z,11.45
2022-10-14T14:11:54.610Z,13.18
2022-10-14T14:14:33.405Z,14.48
2022-10-14T14:17:01.300Z,14.68
2022-10-14T14:19:36.037Z,13.90
2022-10-14T14:22:28.858Z,15.88
2022-10-14T14:25:34.893Z,11.15
2022-10-14T14:28:05.720Z,14.10
2022-10-14T14:30:35.753Z,15.43
2022-10-14T14:33:06.794Z,13.70
2022-10-14T14:35:33.310Z,15.20
2022-10-14T14:38:00.066Z,16.80
2022-10-14T14:40:30.979Z,10.82
2022-10-14T14:43:03.662Z,12.60
2022-10-14T14:45:33.809Z,16.15
2022-10-14T14:48:06.793Z,14.35
2022-10-14T14:50:42.851Z,11.27
2022-10-14T14:53:17.242Z,11.23
2022-10-14T14:56:03.898Z,17.00
2022-10-14T14:58:47.262Z,12.07
2022-10-14T15:01:22.352Z,15.65
2022-10-14T15:04:12.204Z,9.75
2022-10-14T15:09:24.287Z,11.93
2022-10-14T15:11:57.684Z,12.38
2022-10-14T15:14:30.665Z,10.18
2022-10-14T15:16:57.166Z,11.88
2022-10-14T15:19:32.937Z,11.15
2022-10-14T15:22:24.062Z,11.90
2022-10-14T15:25:12.041Z,11.82
2022-10-14T15:27:46.371Z,10.00
2022-10-14T15:30:39.538Z,9.15
2022-10-14T15:33:17.785Z,14.30
2022-10-14T15:35:46.265Z,16.08
2022-10-14T15:38:18.332Z,17.15
2022-10-14T15:40:46.812Z,9.55
2022-10-14T15:43:18.524Z,11.10
2022-10-14T15:48:19.983Z,12.50
2022-10-14T15:50:48.229Z,14.63
2022-10-14T15:53:17.127Z,13.32
2022-10-14T15:55:44.117Z,16.05
2022-10-14T15:58:10.508Z,11.93
2022-10-14T16:00:37.022Z,13.77
2022-10-14T16:03:03.781Z,10.50
2022-10-14T16:05:30.281Z,11.68
2022-10-14T16:07:57.391Z,9.75
2022-10-14T16:10:25.907Z,20.70
2022-10-14T16:12:54.506Z,28.25
2022-10-14T16:15:32.212Z,18.50
2022-10-14T16:17:58.854Z,22.45
2022-10-14T16:20:26.178Z,14.52
2022-10-14T16:22:52.957Z,11.50
2022-10-14T16:25:33.582Z,11.18
2022-10-14T16:28:00.484Z,10.68
2022-10-14T16:30:27.945Z,17.27
2022-10-14T16:32:55.012Z,12.70
2022-10-14T16:35:21.439Z,12.88
2022-10-14T16:37:48.838Z,10.82
2022-10-14T16:40:15.404Z,13.48
2022-10-14T16:42:41.785Z,14.82
2022-10-14T16:45:08.524Z,19.98
2022-10-14T16:47:34.979Z,11.02
2022-10-14T16:50:01.486Z,13.07
2022-10-14T16:52:27.925Z,11.90
2022-10-14T16:54:54.383Z,12.93
2022-10-14T16:57:21.036Z,13.93
2022-10-14T16:59:47.448Z,12.43
2022-10-14T17:02:16.019Z,12.35
2022-10-14T17:04:43.194Z,15.48
2022-10-14T17:07:09.942Z,17.55
2022-10-14T17:09:37.002Z,12.68
2022-10-14T17:12:06.949Z,13.70
2022-10-14T17:14:36.469Z,15.60
2022-10-14T17:17:03.151Z,16.35
2022-10-14T17:19:29.737Z,17.40
2022-10-14T17:21:56.230Z,12.25
2022-10-14T17:24:23.217Z,14.23
2022-10-14T17:26:49.683Z,14.07
2022-10-14T17:29:16.106Z,11.60
2022-10-14T17:31:42.848Z,11.20
2022-10-14T17:34:10.153Z,12.20
2022-10-14T17:36:36.553Z,14.65
2022-10-14T17:39:03.493Z,15.82
2022-10-14T17:41:30.707Z,14.80
2022-10-14T17:44:00.260Z,11.93
2022-10-14T17:46:29.139Z,11.15
2022-10-14T17:48:58.063Z,13.70
2022-10-14T17:51:25.939Z,16.60
2022-10-14T17:53:58.176Z,13.00
2022-10-14T17:56:25.635Z,11.13
2022-10-14T17:58:54.136Z,14.35
2022-10-14T18:01:36.672Z,16.88
2022-10-14T18:04:08.047Z,13.13
2022-10-14T18:06:35.932Z,12.35
2022-10-14T18:09:05.708Z,13.07
2022-10-14T18:11:56.180Z,13.80
2022-10-14T18:14:21.403Z,12.93
2022-10-14T18:16:48.534Z,13.73
2022-10-14T18:19:16.747Z,15.30
2022-10-14T18:21:44.528Z,13.73
2022-10-14T18:24:11.884Z,17.15
2022-10-14T18:26:40.525Z,15.77
2022-10-14T18:29:07.245Z,12.07
2022-10-14T18:31:33.719Z,14.48
2022-10-14T18:34:01.714Z,12.45
2022-10-14T18:36:31.048Z,10.13
2022-10-14T18:39:00.020Z,12.63
2022-10-14T18:41:27.446Z,9.82
2022-10-14T18:44:00.523Z,10.63
2022-10-14T18:46:29.494Z,12.73
2022-10-14T18:48:57.641Z,13.63
2022-10-14T18:51:29.325Z,8.95
2022-10-14T18:59:23.742Z,11.05
2022-10-14T19:01:52.823Z,11.07
2022-10-14T19:04:22.155Z,11.52
2022-10-14T19:06:49.013Z,9.50
2022-10-14T19:09:16.946Z,12.82
2022-10-14T19:11:44.591Z,10.98
2022-10-14T19:14:11.150Z,14.15
2022-10-14T19:16:39.080Z,11.95
2022-10-14T19:19:14.131Z,12.23
2022-10-14T19:21:41.151Z,10.75
2022-10-14T19:24:10.768Z,11.00
2022-10-14T19:26:40.881Z,11.73
2022-10-14T19:29:11.478Z,9.30
2022-10-14T19:31:39.189Z,10.25
2022-10-14T19:34:07.405Z,11.02
2022-10-14T19:36:38.332Z,11.15
2022-10-14T19:39:06.996Z,14.35
2022-10-14T19:41:35.522Z,12.27
2022-10-14T19:44:01.983Z,10.65
2022-10-14T19:46:29.155Z,11.52
2022-10-14T19:48:58.243Z,11.35
2022-10-14T19:51:24.888Z,16.05
2022-10-14T19:53:51.695Z,14.00
2022-10-14T19:56:18.246Z,13.32
2022-10-14T19:58:45.121Z,14.23
2022-10-14T20:01:16.864Z,14.68
2022-10-14T20:06:11.362Z,13.48
2022-10-14T20:08:37.857Z,11.88
2022-10-14T20:11:07.253Z,15.13
2022-10-14T20:13:34.559Z,10.98
2022-10-14T20:16:02.391Z,17.15
2022-10-14T20:18:29.907Z,10.13
2022-10-14T20:20:56.908Z,13.55
2022-10-14T20:23:24.554Z,14.93
2022-10-14T20:25:51.626Z,12.80
2022-10-14T20:28:21.049Z,13.30
2022-10-14T20:30:48.257Z,13.82
2022-10-14T20:33:14.762Z,11.88
2022-10-14T20:35:41.269Z,17.90
2022-10-14T20:38:07.734Z,15.38
2022-10-14T20:40:35.524Z,12.68
2022-10-14T20:43:02.657Z,15.70
2022-10-14T20:45:29.199Z,13.65
2022-10-14T20:47:55.715Z,12.70
2022-10-14T20:50:22.798Z,15.60
2022-10-14T20:52:49.747Z,11.73
2022-10-14T20:55:16.243Z,12.95
2022-10-14T20:57:42.656Z,16.00
2022-10-14T21:00:09.935Z,15.63
2022-10-14T21:02:36.581Z,13.90
2022-10-14T21:05:03.537Z,18.90
2022-10-14T21:07:29.950Z,16.67
2022-10-14T21:09:56.363Z,16.85
2022-10-14T21:12:22.921Z,15.70
2022-10-14T21:14:49.477Z,16.75
2022-10-14T21:17:15.932Z,19.60
2022-10-14T21:19:42.364Z,17.42
2022-10-14T21:22:09.593Z,19.35
2022-10-14T21:24:36.258Z,18.70
2022-10-14T21:27:02.778Z,19.02
2022-10-14T21:29:29.344Z,17.73
2022-10-14T21:31:55.840Z,24.08
2022-10-14T21:34:24.778Z,22.17
2022-10-14T21:36:51.459Z,18.63
2022-10-14T21:39:18.412Z,26.77
2022-10-14T21:41:45.892Z,24.77
2022-10-14T21:44:17.682Z,21.13
2022-10-14T21:46:44.204Z,22.42
2022-10-14T21:49:11.086Z,21.52
2022-10-14T21:51:38.317Z,28.27
2022-10-14T21:54:05.276Z,21.85
2022-10-14T21:56:32.099Z,26.48
2022-10-14T21:58:58.770Z,23.58
2022-10-14T22:01:27.869Z,25.85
2022-10-14T22:03:56.852Z,28.15
2022-10-14T22:06:23.952Z,23.35
2022-10-14T22:08:52.499Z,26.77
2022-10-14T22:11:24.498Z,25.08
2022-10-14T22:13:52.048Z,23.08
2022-10-14T22:16:18.782Z,28.38
2022-10-14T22:18:46.749Z,26.67
2022-10-14T22:21:15.482Z,26.65
2022-10-14T22:23:42.168Z,26.50
2022-10-14T22:26:12.210Z,29.88
2022-10-14T22:28:39.132Z,24.23
2022-10-14T22:31:07.992Z,27.98
2022-10-14T22:33:39.068Z,29.13
2022-10-14T22:36:13.761Z,30.63
2022-10-14T22:38:41.979Z,27.17
2022-10-14T22:41:10.158Z,27.60
2022-10-14T22:43:36.808Z,40.03
2022-10-14T22:46:12.348Z,30.67
2022-10-14T22:48:39.070Z,28.65
2022-10-14T22:51:11.521Z,32.13
2022-10-14T22:53:39.907Z,31.52
2022-10-14T22:56:09.438Z,36.83
2022-10-14T22:58:36.326Z,37.35
2022-10-14T23:01:14.947Z,27.98
2022-10-14T23:03:42.290Z,33.17
2022-10-14T23:06:11.585Z,28.42
2022-10-14T23:08:38.397Z,30.58
2022-10-14T23:11:05.861Z,31.38
2022-10-14T23:13:33.353Z,29.88
2022-10-14T23:16:07.714Z,31.50
2022-10-14T23:18:37.389Z,28.40
2022-10-14T23:21:37.526Z,31.67
2022-10-14T23:24:07.464Z,34.80
2022-10-14T23:26:35.055Z,32.55
2022-10-14T23:29:04.821Z,34.00
2022-10-14T23:31:33.349Z,29.70
2022-10-14T23:34:01.845Z,34.00
2022-10-14T23:36:28.818Z,32.22
2022-10-14T23:38:55.590Z,32.97
2022-10-14T23:41:22.880Z,33.85
2022-10-14T23:43:51.198Z,32.67
2022-10-14T23:46:18.938Z,30.52
2022-10-14T23:48:51.519Z,30.08
2022-10-14T23:51:27.726Z,36.45
2022-10-14T23:53:54.534Z,32.33
2022-10-14T23:56:20.942Z,32.53
2022-10-14T23:58:47.391Z,31.02
